createdAt,value
2018-02-22T00:03:40.211Z,12.90
2018-02-22T00:08:41.511Z,11.13
2018-02-22T00:13:42.835Z,11.50
2018-02-22T00:18:44.242Z,11.40
2018-02-22T00:23:45.673Z,12.17
2018-02-22T00:28:47.727Z,12.00
2018-02-22T00:33:49.215Z,10.40
2018-02-22T00:38:50.542Z,11.83
2018-02-22T00:43:51.902Z,11.50
2018-02-22T00:48:53.326Z,12.50
2018-02-22T00:53:55.415Z,12.60
2018-02-22T00:58:56.755Z,12.10
2018-02-22T01:03:58.138Z,11.57
2018-02-22T01:08:59.551Z,11.90
2018-02-22T01:14:00.915Z,12.57
2018-02-22T01:19:02.424Z,11.80
2018-02-22T01:24:03.760Z,12.00
2018-02-22T01:29:05.069Z,11.27
2018-02-22T01:34:06.684Z,11.40
2018-02-22T01:39:08.037Z,11.30
2018-02-22T01:44:09.378Z,12.07
2018-02-22T01:49:10.856Z,12.30
2018-02-22T01:54:12.213Z,12.37
2018-02-22T01:59:13.519Z,13.50
2018-02-22T02:04:15.624Z,11.80
2018-02-22T02:09:17.724Z,11.60
2018-02-22T02:14:19.062Z,12.70
2018-02-22T02:19:20.423Z,12.57
2018-02-22T02:24:21.768Z,11.80
2018-02-22T02:29:23.124Z,13.03
2018-02-22T02:34:24.460Z,12.93
2018-02-22T02:39:25.793Z,13.57
2018-02-22T02:44:27.115Z,12.13
2018-02-22T02:49:28.490Z,12.77
2018-02-22T02:54:29.831Z,12.63
2018-02-22T02:59:31.178Z,13.47
2018-02-22T03:04:32.535Z,13.77
2018-02-22T03:09:33.912Z,13.50
2018-02-22T03:14:35.986Z,12.60
2018-02-22T03:19:37.372Z,14.30
2018-02-22T03:24:38.815Z,13.97
2018-02-22T03:29:40.899Z,13.17
2018-02-22T03:34:42.295Z,15.37
2018-02-22T03:39:44.393Z,13.20
2018-02-22T03:44:45.754Z,15.53
2018-02-22T03:49:47.094Z,13.57
2018-02-22T03:54:49.251Z,12.87
2018-02-22T03:59:50.624Z,13.70
2018-02-22T04:04:51.975Z,15.47
2018-02-22T04:09:54.155Z,14.47
2018-02-22T04:14:55.506Z,14.43
2018-02-22T04:19:56.923Z,14.70
2018-02-22T04:24:58.258Z,14.70
2018-02-22T04:30:00.359Z,14.27
2018-02-22T04:35:02.461Z,13.90
2018-02-22T04:40:04.569Z,14.33
2018-02-22T04:45:06.020Z,14.53
2018-02-22T04:50:07.433Z,15.87
2018-02-22T04:55:08.782Z,15.17
2018-02-22T05:00:10.177Z,15.90
2018-02-22T05:05:11.507Z,14.97
2018-02-22T05:10:12.847Z,15.57
2018-02-22T05:15:14.295Z,16.20
2018-02-22T05:20:15.685Z,14.90
2018-02-22T05:25:17.103Z,14.77
2018-02-22T05:30:18.429Z,15.97
2018-02-22T05:35:20.719Z,15.57
2018-02-22T05:40:22.070Z,15.57
2018-02-22T05:45:23.410Z,15.37
2018-02-22T05:50:24.769Z,15.43
2018-02-22T05:55:26.932Z,18.17
2018-02-22T06:00:28.280Z,16.53
2018-02-22T06:05:29.614Z,15.90
2018-02-22T06:10:30.984Z,15.33
2018-02-22T06:15:32.352Z,16.57
2018-02-22T06:20:33.684Z,14.93
2018-02-22T06:25:35.040Z,15.40
2018-02-22T06:30:36.402Z,16.17
2018-02-22T06:35:38.561Z,16.47
2018-02-22T06:40:40.007Z,16.50
2018-02-22T06:45:42.332Z,14.47
2018-02-22T06:50:44.408Z,15.73
2018-02-22T06:55:45.726Z,15.00
2018-02-22T07:00:47.808Z,16.23
2018-02-22T07:05:49.177Z,16.07
2018-02-22T07:10:50.519Z,15.93
2018-02-22T07:15:51.874Z,16.43
2018-02-22T07:20:53.278Z,14.90
2018-02-22T07:25:55.462Z,14.73
2018-02-22T07:30:56.792Z,15.90
2018-02-22T07:35:58.872Z,14.07
2018-02-22T07:41:00.940Z,15.00
2018-02-22T07:46:02.319Z,15.50
2018-02-22T07:51:03.663Z,14.00
2018-02-22T07:56:05.022Z,16.30
2018-02-22T08:01:06.424Z,16.07
2018-02-22T08:06:07.853Z,15.70
2018-02-22T08:11:09.972Z,21.00
2018-02-22T08:16:11.362Z,22.90
2018-02-22T08:21:12.728Z,23.87
2018-02-22T08:26:14.083Z,21.20
2018-02-22T08:31:15.443Z,21.37
2018-02-22T08:36:16.844Z,22.30
2018-02-22T08:41:18.188Z,24.00
2018-02-22T08:46:19.540Z,25.63
2018-02-22T08:51:20.871Z,26.93
2018-02-22T08:56:22.972Z,26.63
2018-02-22T09:01:25.070Z,24.57
2018-02-22T09:06:26.458Z,27.00
2018-02-22T09:11:27.805Z,27.70
2018-02-22T09:16:29.183Z,25.93
2018-02-22T09:21:30.562Z,26.17
2018-02-22T09:26:31.926Z,26.90
2018-02-22T09:31:33.239Z,22.80
2018-02-22T09:36:34.602Z,19.10
2018-02-22T09:41:35.971Z,21.83
2018-02-22T09:46:37.332Z,21.60
2018-02-22T09:51:38.683Z,20.70
2018-02-22T09:56:40.103Z,20.50
2018-02-22T10:01:41.483Z,19.63
2018-02-22T10:06:42.826Z,17.67
2018-02-22T10:11:50.300Z,17.47
2018-02-22T10:16:52.366Z,18.00
2018-02-22T10:21:53.800Z,22.20
2018-02-22T10:26:55.167Z,20.33
2018-02-22T10:31:56.504Z,21.50
2018-02-22T10:36:57.855Z,20.07
2018-02-22T10:41:59.992Z,21.57
2018-02-22T10:47:01.378Z,19.43
2018-02-22T10:52:02.779Z,19.70
2018-02-22T10:57:04.100Z,20.17
2018-02-22T11:02:11.411Z,20.63
2018-02-22T11:07:12.803Z,20.40
2018-02-22T11:12:14.152Z,19.60
2018-02-22T11:17:16.346Z,18.23
2018-02-22T11:22:17.691Z,15.87
2018-02-22T11:27:19.028Z,15.53
2018-02-22T11:32:20.421Z,13.93
2018-02-22T11:37:22.583Z,12.10
2018-02-22T11:42:23.911Z,12.03
2018-02-22T11:47:25.252Z,11.43
2018-02-22T11:52:26.615Z,12.27
2018-02-22T11:57:28.729Z,12.27
2018-02-22T12:02:30.864Z,11.90
2018-02-22T12:07:32.182Z,12.47
2018-02-22T12:12:33.532Z,12.90
2018-02-22T12:17:34.868Z,12.80
2018-02-22T12:22:36.260Z,12.97
2018-02-22T12:27:37.636Z,13.20
2018-02-22T12:32:39.052Z,13.87
2018-02-22T12:37:40.454Z,14.87
2018-02-22T12:42:41.874Z,12.67
2018-02-22T12:47:43.240Z,12.00
2018-02-22T12:52:45.375Z,11.90
2018-02-22T12:57:46.742Z,11.20
2018-02-22T13:02:48.855Z,12.70
2018-02-22T13:07:50.227Z,10.33
2018-02-22T13:12:51.558Z,9.40
2018-02-22T13:17:52.938Z,10.40
2018-02-22T13:22:54.324Z,9.77
2018-02-22T13:27:55.712Z,8.93
2018-02-22T13:33:15.411Z,8.70
2018-02-22T13:38:35.171Z,7.50
2018-02-22T13:43:36.572Z,8.70
2018-02-22T13:54:26.381Z,6.93
2018-02-22T13:59:27.783Z,7.27
2018-02-22T14:04:29.125Z,6.83
2018-02-22T14:09:30.451Z,7.67
2018-02-22T14:14:31.830Z,7.60
2018-02-22T14:19:33.157Z,6.47
2018-02-22T14:24:34.526Z,6.83
2018-02-22T14:29:35.897Z,5.90
2018-02-22T14:34:37.324Z,5.73
2018-02-22T14:39:38.723Z,4.90
2018-02-22T14:44:40.174Z,4.67
2018-02-22T14:49:41.522Z,5.87
2018-02-22T14:54:43.635Z,5.90
2018-02-22T14:59:45.012Z,5.33
2018-02-22T15:04:47.124Z,5.17
2018-02-22T15:09:49.307Z,5.37
2018-02-22T15:14:50.626Z,4.17
2018-02-22T15:19:52.033Z,5.10
2018-02-22T15:24:53.408Z,4.03
2018-02-22T15:29:54.780Z,3.70
2018-02-22T15:34:56.879Z,4.50
2018-02-22T15:39:58.254Z,4.70
2018-02-22T15:44:59.658Z,4.07
2018-02-22T15:50:01.015Z,3.90
2018-02-22T15:55:02.438Z,4.00
2018-02-22T16:00:03.857Z,4.07
2018-02-22T16:10:39.862Z,3.90
2018-02-22T16:15:41.312Z,3.73
2018-02-22T16:20:42.733Z,4.77
2018-02-22T16:25:44.115Z,3.80
2018-02-22T16:30:45.530Z,4.90
2018-02-22T16:35:46.920Z,4.07
2018-02-22T16:40:48.285Z,4.17
2018-02-22T16:45:49.696Z,4.27
2018-02-22T16:50:51.073Z,4.40
2018-02-22T16:55:52.435Z,5.37
2018-02-22T17:00:55.376Z,4.90
2018-02-22T17:05:56.755Z,4.90
2018-02-22T17:10:58.854Z,5.83
2018-02-22T17:16:00.945Z,5.10
2018-02-22T17:21:02.309Z,30.87
2018-02-22T17:26:09.740Z,6.97
2018-02-22T17:31:17.160Z,6.23
2018-02-22T17:36:24.485Z,7.77
2018-02-22T17:41:32.134Z,12.63
2018-02-22T17:46:33.495Z,11.50
2018-02-22T17:51:34.980Z,10.80
2018-02-22T17:56:37.136Z,11.23
2018-02-22T18:01:38.497Z,12.37
2018-02-22T18:06:39.838Z,9.60
2018-02-22T18:11:41.213Z,28.13
2018-02-22T18:16:42.587Z,10.10
2018-02-22T18:21:44.013Z,12.20
2018-02-22T18:26:45.419Z,11.17
2018-02-22T18:31:47.656Z,19.13
2018-02-22T18:36:49.036Z,10.90
2018-02-22T18:41:53.187Z,13.40
2018-02-22T18:46:54.668Z,15.57
2018-02-22T18:51:56.061Z,14.70
2018-02-22T18:56:57.455Z,19.13
2018-02-22T19:01:59.574Z,12.10
2018-02-22T19:07:00.975Z,28.03
2018-02-22T19:12:02.401Z,17.30
2018-02-22T19:17:03.737Z,14.07
2018-02-22T19:22:05.112Z,19.60
2018-02-22T19:27:07.216Z,12.30
2018-02-22T19:32:08.635Z,16.00
2018-02-22T19:37:10.661Z,16.70
2018-02-22T19:42:12.106Z,17.07
2018-02-22T19:47:13.499Z,21.23
2018-02-22T19:52:14.929Z,11.30
2018-02-22T19:57:17.193Z,10.20
2018-02-22T20:02:18.568Z,25.63
2018-02-22T20:07:19.968Z,12.23
2018-02-22T20:12:21.407Z,28.90
2018-02-22T20:17:23.016Z,11.67
2018-02-22T20:22:25.101Z,12.30
2018-02-22T20:27:26.464Z,12.30
2018-02-22T20:32:27.814Z,15.50
2018-02-22T20:37:29.952Z,14.50
2018-02-22T20:42:31.484Z,13.53
2018-02-22T20:47:32.926Z,12.73
2018-02-22T20:52:41.153Z,13.27
2018-02-22T20:57:42.621Z,13.30
2018-02-22T21:02:44.056Z,13.53
2018-02-22T21:07:45.424Z,14.70
2018-02-22T21:12:46.736Z,14.70
2018-02-22T21:17:48.138Z,14.93
2018-02-22T21:22:49.651Z,14.73
2018-02-22T21:27:51.032Z,14.00
2018-02-22T21:32:52.372Z,15.30
2018-02-22T21:37:53.694Z,15.13
2018-02-22T21:42:55.040Z,16.50
2018-02-22T21:47:56.466Z,15.53
2018-02-22T21:52:57.840Z,14.60
2018-02-22T21:57:59.184Z,15.50
2018-02-22T22:03:01.280Z,16.37
2018-02-22T22:08:02.660Z,15.30
2018-02-22T22:13:04.608Z,16.70
2018-02-22T22:18:06.002Z,17.60
2018-02-22T22:23:07.399Z,16.10
2018-02-22T22:28:08.799Z,15.40
2018-02-22T22:33:10.185Z,15.63
2018-02-22T22:38:11.568Z,16.93
2018-02-22T22:43:13.103Z,16.53
2018-02-22T22:48:14.430Z,17.63
2018-02-22T22:53:16.665Z,15.10
2018-02-22T22:58:18.084Z,17.17
2018-02-22T23:03:19.414Z,15.53
2018-02-22T23:08:21.534Z,16.40
2018-02-22T23:13:23.588Z,16.67
2018-02-22T23:18:25.023Z,17.50
2018-02-22T23:23:27.131Z,16.53
2018-02-22T23:28:29.187Z,16.23
2018-02-22T23:33:30.657Z,16.63
2018-02-22T23:38:32.048Z,17.90
2018-02-22T23:43:33.514Z,17.00
2018-02-22T23:48:34.910Z,16.63
2018-02-22T23:53:36.988Z,18.00
2018-02-22T23:58:38.360Z,16.40
